createdAt,value
2023-01-26T00:01:10.972Z,32.10
2023-01-26T00:03:37.890Z,32.55
2023-01-26T00:06:07.445Z,33.15
2023-01-26T00:08:38.410Z,31.63
2023-01-26T00:11:06.670Z,32.35
2023-01-26T00:13:34.418Z,30.88
2023-01-26T00:16:02.121Z,30.63
2023-01-26T00:18:29.768Z,30.88
2023-01-26T00:21:02.384Z,30.30
2023-01-26T00:23:30.846Z,29.75
2023-01-26T00:25:57.741Z,29.85
2023-01-26T00:28:24.753Z,30.40
2023-01-26T00:30:51.555Z,28.48
2023-01-26T00:33:18.385Z,28.40
2023-01-26T00:35:45.302Z,29.17
2023-01-26T00:38:14.857Z,23.48
2023-01-26T00:40:41.660Z,25.13
2023-01-26T00:43:08.472Z,25.92
2023-01-26T00:45:35.985Z,25.17
2023-01-26T00:48:02.937Z,28.42
2023-01-26T00:50:29.769Z,27.05
2023-01-26T00:52:56.621Z,28.38
2023-01-26T00:55:23.448Z,26.10
2023-01-26T00:57:50.470Z,26.05
2023-01-26T01:00:18.059Z,25.48
2023-01-26T01:02:44.872Z,26.73
2023-01-26T01:05:12.350Z,25.67
2023-01-26T01:07:39.175Z,24.70
2023-01-26T01:10:06.278Z,25.40
2023-01-26T01:12:33.109Z,26.30
2023-01-26T01:14:59.988Z,26.65
2023-01-26T01:17:27.105Z,26.27
2023-01-26T01:19:53.924Z,27.30
2023-01-26T01:22:20.753Z,26.13
2023-01-26T01:24:47.551Z,27.92
2023-01-26T01:27:14.353Z,25.70
2023-01-26T01:29:41.154Z,27.15
2023-01-26T01:32:07.967Z,30.23
2023-01-26T01:34:34.743Z,30.27
2023-01-26T01:37:01.590Z,28.30
2023-01-26T01:39:28.460Z,30.33
2023-01-26T01:41:55.270Z,32.10
2023-01-26T01:44:24.008Z,31.25
2023-01-26T01:47:02.756Z,30.35
2023-01-26T01:49:38.776Z,31.13
2023-01-26T01:52:17.703Z,32.75
2023-01-26T01:55:07.521Z,31.63
2023-01-26T01:57:47.072Z,32.28
2023-01-26T02:00:20.306Z,30.08
2023-01-26T02:03:14.629Z,31.40
2023-01-26T02:05:56.013Z,31.58
2023-01-26T02:08:27.724Z,31.02
2023-01-26T02:10:57.322Z,31.05
2023-01-26T02:13:24.894Z,32.97
2023-01-26T02:15:52.103Z,32.20
2023-01-26T02:18:19.048Z,31.45
2023-01-26T02:20:50.764Z,31.92
2023-01-26T02:23:42.577Z,33.10
2023-01-26T02:26:16.539Z,33.07
2023-01-26T02:28:44.799Z,32.88
2023-01-26T02:31:12.904Z,33.80
2023-01-26T02:33:40.954Z,31.33
2023-01-26T02:36:14.790Z,33.83
2023-01-26T02:38:49.095Z,32.72
2023-01-26T02:41:37.566Z,33.45
2023-01-26T02:44:07.166Z,33.80
2023-01-26T02:46:34.103Z,33.28
2023-01-26T02:49:19.312Z,30.42
2023-01-26T02:51:46.126Z,31.52
2023-01-26T02:54:33.156Z,31.02
2023-01-26T02:57:00.133Z,29.35
2023-01-26T02:59:27.026Z,31.50
2023-01-26T03:01:56.278Z,30.75
2023-01-26T03:04:23.256Z,31.02
2023-01-26T03:06:50.192Z,31.77
2023-01-26T03:09:17.022Z,29.90
2023-01-26T03:11:43.836Z,32.53
2023-01-26T03:14:15.825Z,32.45
2023-01-26T03:16:42.834Z,32.65
2023-01-26T03:19:31.585Z,33.85
2023-01-26T03:22:17.698Z,33.38
2023-01-26T03:25:03.143Z,33.47
2023-01-26T03:27:43.347Z,32.00
2023-01-26T03:30:11.188Z,31.75
2023-01-26T03:32:38.361Z,33.00
2023-01-26T03:35:05.639Z,33.47
2023-01-26T03:37:37.035Z,34.30
2023-01-26T03:40:23.375Z,31.10
2023-01-26T03:43:08.954Z,32.70
2023-01-26T03:45:54.452Z,33.97
2023-01-26T03:48:39.854Z,31.48
2023-01-26T03:51:25.410Z,32.90
2023-01-26T03:54:10.873Z,33.22
2023-01-26T03:56:37.685Z,33.92
2023-01-26T03:59:09.694Z,33.33
2023-01-26T04:01:41.699Z,33.70
2023-01-26T04:04:29.728Z,32.67
2023-01-26T04:07:15.194Z,32.30
2023-01-26T04:09:41.948Z,32.45
2023-01-26T04:12:10.496Z,31.85
2023-01-26T04:14:56.067Z,33.28
2023-01-26T04:17:41.625Z,30.73
2023-01-26T04:20:27.670Z,31.50
2023-01-26T04:22:54.432Z,32.22
2023-01-26T04:25:22.089Z,33.33
2023-01-26T04:27:48.935Z,34.25
2023-01-26T04:30:17.430Z,32.00
2023-01-26T04:32:46.171Z,32.72
2023-01-26T04:35:13.381Z,33.58
2023-01-26T04:37:40.363Z,32.10
2023-01-26T04:40:08.053Z,35.55
2023-01-26T04:42:34.880Z,36.63
2023-01-26T04:45:01.653Z,35.72
2023-01-26T04:47:29.368Z,34.97
2023-01-26T04:49:56.308Z,36.38
2023-01-26T04:52:23.083Z,34.88
2023-01-26T04:54:49.836Z,35.58
2023-01-26T04:57:16.743Z,36.03
2023-01-26T04:59:43.589Z,37.33
2023-01-26T05:02:10.811Z,34.75
2023-01-26T05:04:37.906Z,35.45
2023-01-26T05:07:04.683Z,36.38
2023-01-26T05:09:31.467Z,36.10
2023-01-26T05:12:18.186Z,35.50
2023-01-26T05:14:44.975Z,35.65
2023-01-26T05:17:12.868Z,36.30
2023-01-26T05:19:39.639Z,33.45
2023-01-26T05:22:06.444Z,36.65
2023-01-26T05:24:33.258Z,34.83
2023-01-26T05:27:21.399Z,34.22
2023-01-26T05:29:48.928Z,36.22
2023-01-26T05:32:15.706Z,34.60
2023-01-26T05:34:42.513Z,37.13
2023-01-26T05:37:09.351Z,34.33
2023-01-26T05:39:36.147Z,34.97
2023-01-26T05:42:03.403Z,33.20
2023-01-26T05:44:30.176Z,34.90
2023-01-26T05:46:57.919Z,34.50
2023-01-26T05:49:24.713Z,33.78
2023-01-26T05:51:51.593Z,34.50
2023-01-26T05:54:18.439Z,36.53
2023-01-26T05:56:45.178Z,35.55
2023-01-26T05:59:11.943Z,36.03
2023-01-26T06:01:39.387Z,34.72
2023-01-26T06:04:06.197Z,36.42
2023-01-26T06:06:33.104Z,36.35
2023-01-26T06:08:59.883Z,34.15
2023-01-26T06:11:26.638Z,34.08
2023-01-26T06:13:53.352Z,34.15
2023-01-26T06:16:20.132Z,34.60
2023-01-26T06:18:50.195Z,34.60
2023-01-26T06:21:17.198Z,34.92
2023-01-26T06:23:46.041Z,34.95
2023-01-26T06:26:12.744Z,33.17
2023-01-26T06:28:39.935Z,35.22
2023-01-26T06:31:08.432Z,33.78
2023-01-26T06:33:37.442Z,32.65
2023-01-26T06:36:06.281Z,33.25
2023-01-26T06:38:33.117Z,35.08
2023-01-26T06:41:04.536Z,33.03
2023-01-26T06:43:35.416Z,34.17
2023-01-26T06:46:04.001Z,33.75
2023-01-26T06:48:32.939Z,32.30
2023-01-26T06:51:37.598Z,33.33
2023-01-26T06:54:04.568Z,33.25
2023-01-26T06:56:35.796Z,32.83
2023-01-26T06:59:02.505Z,32.60
2023-01-26T07:01:37.192Z,33.00
2023-01-26T07:04:04.205Z,32.85
2023-01-26T07:06:31.192Z,33.53
2023-01-26T07:08:57.892Z,32.80
2023-01-26T07:11:25.684Z,31.92
2023-01-26T07:13:52.645Z,34.58
2023-01-26T07:16:19.579Z,33.92
2023-01-26T07:18:46.336Z,34.78
2023-01-26T07:21:15.540Z,32.10
2023-01-26T07:23:42.515Z,32.08
2023-01-26T07:26:09.239Z,31.15
2023-01-26T07:28:36.295Z,33.13
2023-01-26T07:31:06.042Z,32.42
2023-01-26T07:33:33.725Z,34.40
2023-01-26T07:36:00.999Z,34.65
2023-01-26T07:38:30.954Z,34.22
2023-01-26T07:40:57.929Z,35.20
2023-01-26T07:43:24.817Z,34.22
2023-01-26T07:45:53.957Z,33.63
2023-01-26T07:48:23.084Z,34.08
2023-01-26T07:50:50.622Z,35.47
2023-01-26T07:53:22.828Z,35.78
2023-01-26T07:55:49.669Z,33.25
2023-01-26T07:58:18.593Z,33.63
2023-01-26T08:00:48.172Z,34.45
2023-01-26T08:03:14.979Z,32.80
2023-01-26T08:05:43.212Z,33.55
2023-01-26T08:08:10.437Z,33.25
2023-01-26T08:10:37.187Z,31.33
2023-01-26T08:13:04.023Z,31.73
2023-01-26T08:15:30.791Z,32.92
2023-01-26T08:17:57.771Z,32.00
2023-01-26T08:20:24.472Z,31.95
2023-01-26T08:22:51.232Z,34.55
2023-01-26T08:25:17.956Z,32.47
2023-01-26T08:27:44.678Z,34.17
2023-01-26T08:30:12.690Z,34.53
2023-01-26T08:32:39.683Z,36.30
2023-01-26T08:35:06.802Z,33.63
2023-01-26T08:37:34.100Z,32.75
2023-01-26T08:40:00.917Z,33.85
2023-01-26T08:42:27.633Z,34.85
2023-01-26T08:44:54.424Z,35.17
2023-01-26T08:47:21.142Z,32.00
2023-01-26T08:49:47.884Z,33.47
2023-01-26T08:52:14.726Z,32.58
2023-01-26T08:54:41.405Z,34.13
2023-01-26T08:57:08.166Z,33.42
2023-01-26T08:59:34.937Z,34.83
2023-01-26T09:02:01.817Z,32.25
2023-01-26T09:04:28.610Z,34.72
2023-01-26T09:06:55.404Z,33.42
2023-01-26T09:09:22.140Z,32.60
2023-01-26T09:11:48.864Z,30.90
2023-01-26T09:14:15.598Z,30.80
2023-01-26T09:16:42.413Z,27.98
2023-01-26T09:19:09.167Z,28.95
2023-01-26T09:21:35.959Z,29.17
2023-01-26T09:24:02.802Z,26.70
2023-01-26T09:26:30.632Z,26.20
2023-01-26T09:28:57.630Z,27.58
2023-01-26T09:31:24.534Z,26.88
2023-01-26T09:33:51.738Z,30.92
2023-01-26T09:36:19.047Z,26.58
2023-01-26T09:38:45.892Z,25.67
2023-01-26T09:41:41.516Z,26.42
2023-01-26T09:44:10.874Z,24.42
2023-01-26T09:46:55.520Z,24.42
2023-01-26T09:49:50.188Z,26.30
2023-01-26T09:52:43.624Z,23.90
2023-01-26T09:55:17.345Z,24.60
2023-01-26T09:57:50.992Z,22.30
2023-01-26T10:00:30.246Z,25.20
2023-01-26T10:03:20.372Z,24.63
2023-01-26T10:06:13.709Z,23.52
2023-01-26T10:08:42.726Z,23.48
2023-01-26T10:11:44.147Z,20.67
2023-01-26T10:14:14.291Z,23.83
2023-01-26T10:16:45.158Z,20.42
2023-01-26T10:19:22.272Z,22.45
2023-01-26T10:21:53.076Z,20.27
2023-01-26T10:24:23.438Z,19.27
2023-01-26T10:26:53.317Z,19.13
2023-01-26T10:29:20.635Z,18.83
2023-01-26T10:31:47.396Z,17.50
2023-01-26T10:34:17.745Z,17.60
2023-01-26T10:36:46.462Z,19.92
2023-01-26T10:39:15.675Z,18.70
2023-01-26T10:42:00.815Z,17.77
2023-01-26T10:44:34.563Z,17.27
2023-01-26T10:47:19.783Z,15.90
2023-01-26T10:49:46.492Z,17.80
2023-01-26T10:52:27.858Z,17.25
2023-01-26T10:55:20.980Z,16.48
2023-01-26T10:57:47.896Z,15.73
2023-01-26T11:00:29.909Z,15.00
2023-01-26T11:03:13.286Z,11.88
2023-01-26T11:05:40.131Z,17.30
2023-01-26T11:08:37.200Z,16.50
2023-01-26T11:11:06.843Z,15.25
2023-01-26T11:13:33.786Z,15.20
2023-01-26T11:16:14.757Z,15.45
2023-01-26T11:19:12.390Z,16.65
2023-01-26T11:21:44.888Z,16.13
2023-01-26T11:27:16.045Z,15.63
2023-01-26T11:29:42.831Z,16.40
2023-01-26T11:32:18.739Z,17.38
2023-01-26T11:34:57.387Z,17.45
2023-01-26T11:37:39.322Z,17.05
2023-01-26T11:40:22.641Z,15.70
2023-01-26T11:43:06.968Z,17.17
2023-01-26T11:46:22.102Z,17.00
2023-01-26T11:48:58.220Z,14.95
2023-01-26T11:52:17.131Z,16.02
2023-01-26T11:57:17.781Z,16.50
2023-01-26T11:59:58.551Z,15.93
2023-01-26T12:02:34.324Z,15.20
2023-01-26T12:05:26.708Z,15.95
2023-01-26T12:08:12.129Z,15.85
2023-01-26T12:10:53.860Z,16.70
2023-01-26T12:13:42.829Z,15.57
2023-01-26T12:16:36.119Z,16.67
2023-01-26T12:19:14.850Z,17.02
2023-01-26T12:21:45.583Z,17.95
2023-01-26T12:24:54.302Z,16.80
2023-01-26T12:27:29.649Z,19.08
2023-01-26T12:30:20.368Z,16.50
2023-01-26T12:32:48.282Z,18.02
2023-01-26T12:35:19.621Z,17.95
2023-01-26T12:38:16.992Z,17.00
2023-01-26T12:40:52.483Z,17.40
2023-01-26T12:43:34.217Z,20.08
2023-01-26T12:46:04.291Z,17.97
2023-01-26T12:48:39.310Z,17.58
2023-01-26T12:51:11.658Z,16.63
2023-01-26T12:53:47.420Z,18.08
2023-01-26T12:56:26.072Z,17.25
2023-01-26T12:58:55.331Z,14.25
2023-01-26T13:01:24.435Z,14.93
2023-01-26T13:03:54.203Z,15.48
2023-01-26T13:06:28.678Z,16.25
2023-01-26T13:09:21.642Z,12.93
2023-01-26T13:11:52.839Z,13.68
2023-01-26T13:14:25.816Z,14.77
2023-01-26T13:16:52.752Z,14.60
2023-01-26T13:19:44.507Z,12.77
2023-01-26T13:22:26.113Z,13.38
2023-01-26T13:24:55.915Z,13.05
2023-01-26T13:27:33.829Z,13.02
2023-01-26T13:30:01.473Z,13.80
2023-01-26T13:32:31.186Z,12.55
2023-01-26T13:35:00.737Z,15.10
2023-01-26T13:37:44.529Z,14.15
2023-01-26T13:40:24.833Z,14.23
2023-01-26T13:43:29.817Z,14.77
2023-01-26T13:46:14.849Z,14.88
2023-01-26T13:48:56.048Z,14.38
2023-01-26T13:51:46.829Z,15.20
2023-01-26T13:54:15.427Z,14.77
2023-01-26T13:56:58.953Z,15.95
2023-01-26T13:59:25.849Z,16.35
2023-01-26T14:01:55.508Z,16.23
2023-01-26T14:04:28.234Z,16.60
2023-01-26T14:07:15.604Z,16.58
2023-01-26T14:10:08.397Z,14.48
2023-01-26T14:12:41.925Z,14.48
2023-01-26T14:15:23.737Z,15.63
2023-01-26T14:18:01.990Z,14.80
2023-01-26T14:20:35.383Z,13.98
2023-01-26T14:23:21.131Z,14.90
2023-01-26T14:26:01.807Z,14.07
2023-01-26T14:28:37.410Z,14.05
2023-01-26T14:31:20.549Z,14.02
2023-01-26T14:33:58.802Z,14.43
2023-01-26T14:36:33.144Z,14.15
2023-01-26T14:39:01.171Z,14.55
2023-01-26T14:41:31.796Z,13.50
2023-01-26T14:44:05.818Z,14.70
2023-01-26T14:46:46.619Z,14.85
2023-01-26T14:49:20.718Z,15.02
2023-01-26T14:51:57.087Z,14.65
2023-01-26T14:54:31.342Z,14.93
2023-01-26T14:57:00.406Z,13.73
2023-01-26T14:59:41.857Z,14.45
2023-01-26T15:02:20.566Z,16.20
2023-01-26T15:05:11.674Z,15.10
2023-01-26T15:07:43.517Z,14.88
2023-01-26T15:10:27.390Z,15.30
2023-01-26T15:13:11.206Z,15.48
2023-01-26T15:15:43.892Z,16.08
2023-01-26T15:18:13.613Z,15.13
2023-01-26T15:20:40.620Z,15.68
2023-01-26T15:23:35.767Z,16.23
2023-01-26T15:26:13.069Z,17.00
2023-01-26T15:28:40.055Z,16.15
2023-01-26T15:31:07.579Z,16.40
2023-01-26T15:33:44.385Z,16.13
2023-01-26T15:36:58.917Z,18.27
2023-01-26T15:39:39.499Z,16.23
2023-01-26T15:42:21.035Z,15.45
2023-01-26T15:44:47.751Z,16.17
2023-01-26T15:47:14.747Z,16.23
2023-01-26T15:49:42.691Z,16.52
2023-01-26T15:52:13.705Z,15.48
2023-01-26T15:54:40.690Z,16.67
2023-01-26T15:57:25.932Z,16.48
2023-01-26T15:59:52.643Z,16.38
2023-01-26T16:02:21.041Z,16.88
2023-01-26T16:04:48.322Z,16.83
2023-01-26T16:07:17.847Z,16.77
2023-01-26T16:09:44.967Z,15.60
2023-01-26T16:12:31.309Z,16.20
2023-01-26T16:30:01.027Z,15.77
2023-01-26T16:32:30.098Z,17.38
2023-01-26T16:34:56.879Z,20.95
2023-01-26T16:37:23.598Z,19.30
2023-01-26T16:39:51.388Z,16.25
2023-01-26T16:42:19.985Z,18.40
2023-01-26T16:44:47.381Z,17.95
2023-01-26T16:47:14.191Z,17.52
2023-01-26T16:49:40.925Z,18.35
2023-01-26T16:52:09.245Z,17.45
2023-01-26T16:54:36.076Z,16.10
2023-01-26T16:57:02.980Z,17.98
2023-01-26T16:59:29.867Z,16.42
2023-01-26T17:01:57.136Z,16.45
2023-01-26T17:04:23.949Z,18.92
2023-01-26T17:06:50.672Z,15.57
2023-01-26T17:09:17.425Z,16.70
2023-01-26T17:11:44.196Z,16.77
2023-01-26T17:14:12.687Z,28.65
2023-01-26T17:16:39.663Z,21.40
2023-01-26T17:19:08.994Z,18.52
2023-01-26T17:21:36.281Z,16.48
2023-01-26T17:24:03.224Z,15.68
2023-01-26T17:26:30.073Z,16.42
2023-01-26T17:28:56.870Z,16.55
2023-01-26T17:31:24.793Z,15.15
2023-01-26T17:33:51.627Z,16.52
2023-01-26T17:36:19.535Z,16.40
2023-01-26T17:38:48.093Z,16.10
2023-01-26T17:41:15.397Z,18.63
2023-01-26T17:43:43.150Z,19.17
2023-01-26T17:46:17.840Z,20.60
2023-01-26T17:48:45.917Z,18.55
2023-01-26T17:51:19.203Z,17.88
2023-01-26T17:53:49.788Z,16.92
2023-01-26T17:56:18.950Z,17.15
2023-01-26T17:58:53.724Z,17.55
2023-01-26T18:01:22.074Z,15.30
2023-01-26T18:03:49.140Z,16.05
2023-01-26T18:06:16.962Z,16.00
2023-01-26T18:08:46.168Z,15.40
2023-01-26T18:11:15.547Z,14.30
2023-01-26T18:13:47.370Z,15.32
2023-01-26T18:16:19.346Z,15.95
2023-01-26T18:18:47.091Z,17.00
2023-01-26T18:21:19.688Z,16.52
2023-01-26T18:23:51.802Z,17.42
2023-01-26T18:26:21.670Z,17.80
2023-01-26T18:28:49.268Z,18.05
2023-01-26T18:31:19.003Z,18.23
2023-01-26T18:33:46.353Z,17.02
2023-01-26T18:36:15.321Z,17.48
2023-01-26T18:38:43.974Z,16.65
2023-01-26T18:41:12.731Z,18.05
2023-01-26T18:43:39.930Z,17.80
2023-01-26T18:46:07.066Z,19.77
2023-01-26T18:48:35.196Z,17.10
2023-01-26T18:51:03.246Z,16.98
2023-01-26T18:53:31.467Z,17.88
2023-01-26T18:56:05.725Z,18.45
2023-01-26T18:58:33.167Z,17.58
2023-01-26T19:01:10.359Z,18.38
2023-01-26T19:03:41.718Z,20.00
2023-01-26T19:06:09.520Z,16.08
2023-01-26T19:08:36.239Z,18.48
2023-01-26T19:11:08.672Z,17.67
2023-01-26T19:16:02.152Z,18.75
2023-01-26T19:18:34.032Z,16.17
2023-01-26T19:21:02.972Z,18.48
2023-01-26T19:23:29.897Z,17.45
2023-01-26T19:25:56.693Z,18.40
2023-01-26T19:28:24.436Z,16.83
2023-01-26T19:30:51.203Z,16.95
2023-01-26T19:33:24.161Z,18.35
2023-01-26T19:35:55.467Z,17.88
2023-01-26T19:38:23.192Z,18.90
2023-01-26T19:40:52.739Z,18.15
2023-01-26T19:43:28.209Z,18.40
2023-01-26T19:46:14.100Z,17.92
2023-01-26T19:48:54.867Z,16.65
2023-01-26T19:51:25.241Z,18.40
2023-01-26T19:54:03.491Z,19.88
2023-01-26T19:56:35.072Z,17.75
2023-01-26T19:59:04.283Z,19.77
2023-01-26T20:01:32.269Z,18.92
2023-01-26T20:04:05.515Z,18.77
2023-01-26T20:06:40.776Z,17.33
2023-01-26T20:09:08.698Z,17.17
2023-01-26T20:11:35.602Z,18.23
2023-01-26T20:14:41.507Z,16.38
2023-01-26T20:17:13.273Z,15.88
2023-01-26T20:19:39.981Z,17.42
2023-01-26T20:22:08.828Z,17.33
2023-01-26T20:24:35.976Z,17.33
2023-01-26T20:27:02.895Z,17.23
2023-01-26T20:29:29.700Z,17.77
2023-01-26T20:31:56.620Z,17.58
2023-01-26T20:34:24.507Z,18.50
2023-01-26T20:36:51.679Z,17.63
2023-01-26T20:39:24.473Z,18.15
2023-01-26T20:41:51.953Z,17.73
2023-01-26T20:44:18.863Z,16.65
2023-01-26T20:46:45.880Z,16.48
2023-01-26T20:49:16.067Z,18.15
2023-01-26T20:51:45.261Z,18.17
2023-01-26T20:54:20.247Z,17.02
2023-01-26T20:56:48.055Z,18.48
2023-01-26T20:59:14.809Z,18.20
2023-01-26T21:01:41.531Z,18.65
2023-01-26T21:04:08.365Z,18.50
2023-01-26T21:06:36.205Z,18.00
2023-01-26T21:09:03.752Z,17.58
2023-01-26T21:11:31.587Z,16.35
2023-01-26T21:14:01.072Z,17.55
2023-01-26T21:16:28.598Z,17.20
2023-01-26T21:18:55.770Z,17.35
2023-01-26T21:21:23.414Z,16.80
2023-01-26T21:23:55.250Z,17.00
2023-01-26T21:26:24.465Z,18.15
2023-01-26T21:28:56.623Z,18.65
2023-01-26T21:31:25.692Z,17.10
2023-01-26T21:33:53.268Z,19.85
2023-01-26T21:36:25.765Z,18.35
2023-01-26T21:41:47.217Z,17.33
2023-01-26T21:44:16.506Z,18.42
2023-01-26T21:46:45.940Z,17.15
2023-01-26T21:49:14.563Z,18.85
2023-01-26T21:51:59.956Z,19.13
2023-01-26T21:54:29.991Z,17.70
2023-01-26T21:57:29.338Z,18.20
2023-01-26T22:00:02.057Z,16.65
2023-01-26T22:02:37.983Z,16.95
2023-01-26T22:05:05.045Z,16.38
2023-01-26T22:07:32.269Z,16.48
2023-01-26T22:09:59.027Z,17.23
2023-01-26T22:12:25.872Z,18.13
2023-01-26T22:14:52.683Z,17.25
2023-01-26T22:17:19.426Z,15.75
2023-01-26T22:19:46.512Z,17.13
2023-01-26T22:22:13.315Z,16.98
2023-01-26T22:24:40.060Z,15.70
2023-01-26T22:27:08.289Z,18.58
2023-01-26T22:29:35.481Z,17.27
2023-01-26T22:32:02.685Z,16.67
2023-01-26T22:34:29.509Z,17.30
2023-01-26T22:36:56.197Z,18.00
2023-01-26T22:39:22.972Z,18.35
2023-01-26T22:41:49.723Z,18.45
2023-01-26T22:44:16.522Z,19.25
2023-01-26T22:46:43.237Z,20.40
2023-01-26T22:49:10.155Z,18.10
2023-01-26T22:51:37.548Z,18.33
2023-01-26T22:54:04.816Z,18.48
2023-01-26T22:56:31.632Z,18.30
2023-01-26T22:59:00.649Z,19.25
2023-01-26T23:01:32.539Z,18.13
2023-01-26T23:04:00.622Z,17.23
2023-01-26T23:06:28.226Z,16.45
2023-01-26T23:08:55.570Z,18.23
2023-01-26T23:11:27.904Z,17.83
2023-01-26T23:13:56.189Z,16.88
2023-01-26T23:16:23.956Z,17.98
2023-01-26T23:18:52.350Z,17.35
2023-01-26T23:21:19.785Z,18.02
2023-01-26T23:23:46.709Z,15.35
2023-01-26T23:26:13.422Z,16.67
2023-01-26T23:28:42.605Z,15.73
2023-01-26T23:31:10.628Z,16.17
2023-01-26T23:33:38.801Z,15.45
2023-01-26T23:36:06.930Z,15.32
2023-01-26T23:38:33.779Z,16.13
2023-01-26T23:41:00.662Z,15.55
2023-01-26T23:43:27.765Z,15.80
2023-01-26T23:45:56.537Z,14.77
2023-01-26T23:48:24.428Z,15.63
2023-01-26T23:50:58.573Z,15.85
2023-01-26T23:53:25.973Z,17.02
2023-01-26T23:55:52.975Z,16.23
2023-01-26T23:58:20.138Z,15.23
